秋田 の空港の天気 - METARとTAF

秋田空港 ( RJSK / AXT ) - 秋田県秋田市
飛行場実況気象(Metar)
観測時間09/23 19:00 JST (09/23 10:00 UTC)
風向・風速東南東 3m/s
視程10km以上
天気現象
少しの雲 雲底高度 610m
全天の8割程度の雲 雲底高度 910m
全天の8割程度の雲 雲底高度 1370m
気温20℃
湿度73%
気圧1014hPa
METARRJSK 231000Z 12005KT 9999 FEW020 BKN030 BKN045 20/15 Q1014
過去の天気等 Google飛行場航空写真 Wunderground天気予報

過去48時間のMETAR

飛行場予報(TAF)
発表時間: 9/23 14:07 JST (9/23 05:07 UTC)
予報対象時間: 23日15時 JST ~ 24日21時 JST
風向・風速南東 3m/s
視程8,000m
天気現象弱いしゅう雨
少しの雲 雲底高度 300m
全天の4割程度の雲 雲底高度 610m
全天の8割程度の雲 雲底高度 910m
23日17時 JST ~ 23日22時 JST に一時的に
視程4,000m
天気現象しゅう雨 もや
24日3時 JST ~ 24日9時 JST に一時的に
視程1,500m
天気現象もや
少しの雲 雲底高度 30m
全天の8割程度の雲 雲底高度 90m
24日9時 JST ~ 24日12時 JST に徐々に
風向・風速西北西 3m/s
24日18時 JST ~ 24日21時 JST に徐々に
風向・風速南東 2m/s
TAF RJSK 230507Z 2306/2412 13005KT 8000 -SHRA FEW010 SCT020 BKN030
TEMPO 2308/2313 4000 SHRA BR
TEMPO 2318/2400 1500 BR FEW001 BKN003
BECMG 2400/2403 29005KT
BECMG 2409/2412 13004KT
日本の空港のMETAR・TAFへのリンク

RJTT 東京国際空港
RJAA 新東京国際空港
RJBB 関西国際空港
RJOO 大阪空港
RJGG 中部国際空港
RJCC 新千歳空港
RJFF 福岡空港
ROAH 那覇空港


RJEC 旭川空港
RJCH 函館空港
RJCK 釧路空港
RJCM 女満別空港
RJCB 帯広空港
RJSA 青森空港
RJSS 仙台空港
RJSK 秋田空港
RJSF 福島空港
RJAH 茨城空港
RJSN 新潟空港
RJNT 富山空港
RJNK 小松飛行場
RJNS 静岡空港
RJOH 美保飛行場
RJOC 出雲空港
RJOB 岡山空港
RJOA 広島空港
RJOI 岩国飛行場
RJOT 高松空港
RJOM 松山空港
RJOK 高知空港
RJFR 北九州空港
RJFT 熊本空港
RJFU 長崎空港
RJFS 佐賀空港
RJFO 大分空港
RJFM 宮崎空港
RJFK 鹿児島空港
ROIG 石垣島空港
RJTY 横田飛行場
ROTM 普天間飛行場
RODN 嘉手納飛行場